sensor_id;sensor_type;location;lat;lon;timestamp;pressure;altitude;pressure_sealevel;temperature;humidity
70559;BME280;58108;48.094;11.838;2022-08-21T00:00:45;95518.53;;;15.20;100.00
70559;BME280;58108;48.094;11.838;2022-08-21T00:03:12;95512.03;;;15.14;100.00
70559;BME280;58108;48.094;11.838;2022-08-21T00:05:42;95512.00;;;15.24;100.00
70559;BME280;58108;48.094;11.838;2022-08-21T00:08:09;95510.16;;;15.25;100.00
70559;BME280;58108;48.094;11.838;2022-08-21T00:10:35;95517.81;;;15.28;100.00
70559;BME280;58108;48.094;11.838;2022-08-21T00:13:01;95500.06;;;15.20;100.00
70559;BME280;58108;48.094;11.838;2022-08-21T00:15:29;95500.81;;;15.30;100.00
70559;BME280;58108;48.094;11.838;2022-08-21T00:17:55;95498.94;;;15.23;100.00
70559;BME280;58108;48.094;11.838;2022-08-21T00:20:22;95507.06;;;15.11;100.00
70559;BME280;58108;48.094;11.838;2022-08-21T00:22:48;95506.25;;;15.11;100.00
70559;BME280;58108;48.094;11.838;2022-08-21T00:25:15;95508.19;;;15.09;100.00
70559;BME280;58108;48.094;11.838;2022-08-21T00:27:41;95506.31;;;15.19;100.00
70559;BME280;58108;48.094;11.838;2022-08-21T00:30:09;95514.78;;;14.95;100.00
70559;BME280;58108;48.094;11.838;2022-08-21T00:32:37;95514.88;;;15.03;100.00
70559;BME280;58108;48.094;11.838;2022-08-21T00:35:04;95513.16;;;15.12;100.00
70559;BME280;58108;48.094;11.838;2022-08-21T00:37:29;95509.91;;;15.00;100.00
70559;BME280;58108;48.094;11.838;2022-08-21T00:39:54;95504.59;;;15.10;100.00
70559;BME280;58108;48.094;11.838;2022-08-21T00:42:20;95508.25;;;14.99;100.00
70559;BME280;58108;48.094;11.838;2022-08-21T00:44:47;95500.44;;;15.07;100.00
70559;BME280;58108;48.094;11.838;2022-08-21T00:47:13;95498.25;;;15.02;100.00
70559;BME280;58108;48.094;11.838;2022-08-21T00:49:39;95508.94;;;15.01;100.00
70559;BME280;58108;48.094;11.838;2022-08-21T00:52:08;95502.66;;;15.02;100.00
70559;BME280;58108;48.094;11.838;2022-08-21T00:54:36;95501.91;;;14.92;100.00
70559;BME280;58108;48.094;11.838;2022-08-21T00:57:09;95501.25;;;15.08;100.00
70559;BME280;58108;48.094;11.838;2022-08-21T00:59:37;95498.69;;;14.98;100.00
70559;BME280;58108;48.094;11.838;2022-08-21T01:02:06;95498.78;;;14.78;100.00
70559;BME280;58108;48.094;11.838;2022-08-21T01:04:32;95499.75;;;14.77;100.00
70559;BME280;58108;48.094;11.838;2022-08-21T01:06:58;95493.97;;;14.63;100.00
70559;BME280;58108;48.094;11.838;2022-08-21T01:09:23;95496.59;;;14.63;100.00
70559;BME280;58108;48.094;11.838;2022-08-21T01:11:49;95491.09;;;14.57;100.00
70559;BME280;58108;48.094;11.838;2022-08-21T01:14:14;95490.91;;;14.58;100.00
70559;BME280;58108;48.094;11.838;2022-08-21T01:16:43;95487.31;;;14.59;100.00
70559;BME280;58108;48.094;11.838;2022-08-21T01:19:10;95483.22;;;14.47;100.00
70559;BME280;58108;48.094;11.838;2022-08-21T01:21:36;95477.09;;;14.46;100.00
70559;BME280;58108;48.094;11.838;2022-08-21T01:24:02;95473.38;;;14.39;100.00
70559;BME280;58108;48.094;11.838;2022-08-21T01:26:34;95476.72;;;14.41;100.00
70559;BME280;58108;48.094;11.838;2022-08-21T01:31:50;95476.72;;;14.41;100.00
70559;BME280;58108;48.094;11.838;2022-08-21T01:34:16;95484.38;;;14.34;100.00
70559;BME280;58108;48.094;11.838;2022-08-21T01:36:42;95482.13;;;14.40;100.00
70559;BME280;58108;48.094;11.838;2022-08-21T01:39:08;95475.50;;;14.26;100.00
70559;BME280;58108;48.094;11.838;2022-08-21T01:41:34;95480.19;;;14.42;100.00
70559;BME280;58108;48.094;11.838;2022-08-21T01:43:59;95484.25;;;14.26;100.00
70559;BME280;58108;48.094;11.838;2022-08-21T01:46:25;95483.41;;;14.26;100.00
70559;BME280;58108;48.094;11.838;2022-08-21T01:48:50;95487.03;;;14.25;100.00
70559;BME280;58108;48.094;11.838;2022-08-21T01:51:15;95494.13;;;14.24;100.00
70559;BME280;58108;48.094;11.838;2022-08-21T01:53:41;95481.59;;;14.36;100.00
70559;BME280;58108;48.094;11.838;2022-08-21T01:56:10;95487.00;;;14.34;100.00
70559;BME280;58108;48.094;11.838;2022-08-21T01:58:36;95477.78;;;14.20;100.00
70559;BME280;58108;48.094;11.838;2022-08-21T02:01:03;95482.06;;;14.12;100.00
70559;BME280;58108;48.094;11.838;2022-08-21T02:03:29;95480.56;;;14.09;100.00
70559;BME280;58108;48.094;11.838;2022-08-21T02:05:55;95479.00;;;14.16;100.00
70559;BME280;58108;48.094;11.838;2022-08-21T02:08:21;95487.31;;;14.31;100.00
70559;BME280;58108;48.094;11.838;2022-08-21T02:10:49;95474.72;;;14.15;100.00
70559;BME280;58108;48.094;11.838;2022-08-21T02:13:15;95477.47;;;14.24;100.00
70559;BME280;58108;48.094;11.838;2022-08-21T02:15:40;95470.44;;;14.14;100.00
70559;BME280;58108;48.094;11.838;2022-08-21T02:18:06;95467.94;;;14.13;100.00
70559;BME280;58108;48.094;11.838;2022-08-21T02:20:36;95469.31;;;14.27;100.00
70559;BME280;58108;48.094;11.838;2022-08-21T02:23:03;95464.50;;;14.12;100.00
70559;BME280;58108;48.094;11.838;2022-08-21T02:25:31;95470.47;;;14.04;100.00
70559;BME280;58108;48.094;11.838;2022-08-21T02:27:57;95468.38;;;14.08;100.00
70559;BME280;58108;48.094;11.838;2022-08-21T02:30:32;95462.00;;;14.01;100.00
70559;BME280;58108;48.094;11.838;2022-08-21T02:32:58;95457.63;;;13.81;100.00
70559;BME280;58108;48.094;11.838;2022-08-21T02:35:24;95455.53;;;13.95;100.00
70559;BME280;58108;48.094;11.838;2022-08-21T02:37:57;95458.16;;;13.85;100.00
70559;BME280;58108;48.094;11.838;2022-08-21T02:40:26;95460.25;;;13.81;100.00
70559;BME280;58108;48.094;11.838;2022-08-21T02:42:52;95461.47;;;13.87;100.00
70559;BME280;58108;48.094;11.838;2022-08-21T02:45:19;95459.81;;;13.96;100.00
70559;BME280;58108;48.094;11.838;2022-08-21T02:47:56;95459.28;;;13.83;100.00
70559;BME280;58108;48.094;11.838;2022-08-21T02:50:28;95461.22;;;13.90;100.00
70559;BME280;58108;48.094;11.838;2022-08-21T02:52:53;95466.34;;;13.82;100.00
70559;BME280;58108;48.094;11.838;2022-08-21T02:55:20;95464.00;;;13.79;100.00
70559;BME280;58108;48.094;11.838;2022-08-21T02:57:46;95457.75;;;13.80;100.00
70559;BME280;58108;48.094;11.838;2022-08-21T03:00:11;95460.25;;;13.72;100.00
70559;BME280;58108;48.094;11.838;2022-08-21T03:02:38;95465.94;;;13.77;100.00
70559;BME280;58108;48.094;11.838;2022-08-21T03:05:05;95468.16;;;13.72;100.00
70559;BME280;58108;48.094;11.838;2022-08-21T03:07:31;95468.31;;;13.70;100.00
70559;BME280;58108;48.094;11.838;2022-08-21T03:09:56;95464.72;;;13.71;100.00
70559;BME280;58108;48.094;11.838;2022-08-21T03:12:22;95456.69;;;13.63;100.00
70559;BME280;58108;48.094;11.838;2022-08-21T03:14:48;95466.94;;;13.56;100.00
70559;BME280;58108;48.094;11.838;2022-08-21T03:17:13;95462.91;;;13.62;100.00
70559;BME280;58108;48.094;11.838;2022-08-21T03:19:39;95462.09;;;13.51;100.00
70559;BME280;58108;48.094;11.838;2022-08-21T03:22:04;95467.06;;;13.45;100.00
70559;BME280;58108;48.094;11.838;2022-08-21T03:24:30;95455.44;;;13.37;100.00
70559;BME280;58108;48.094;11.838;2022-08-21T03:26:56;95464.69;;;13.42;100.00
70559;BME280;58108;48.094;11.838;2022-08-21T03:29:22;95465.81;;;13.49;100.00
70559;BME280;58108;48.094;11.838;2022-08-21T03:31:47;95468.03;;;13.44;100.00
70559;BME280;58108;48.094;11.838;2022-08-21T03:34:12;95467.78;;;13.47;100.00
70559;BME280;58108;48.094;11.838;2022-08-21T03:36:38;95470.66;;;13.53;100.00
70559;BME280;58108;48.094;11.838;2022-08-21T03:39:03;95469.69;;;13.25;100.00
70559;BME280;58108;48.094;11.838;2022-08-21T03:41:29;95472.97;;;13.17;100.00
70559;BME280;58108;48.094;11.838;2022-08-21T03:43:54;95477.13;;;13.00;100.00
70559;BME280;58108;48.094;11.838;2022-08-21T03:46:20;95478.81;;;13.11;100.00
70559;BME280;58108;48.094;11.838;2022-08-21T03:48:45;95484.59;;;13.05;100.00
70559;BME280;58108;48.094;11.838;2022-08-21T03:51:10;95488.50;;;13.20;100.00
70559;BME280;58108;48.094;11.838;2022-08-21T03:53:36;95484.19;;;13.09;100.00
70559;BME280;58108;48.094;11.838;2022-08-21T03:56:02;95479.75;;;13.00;100.00
70559;BME280;58108;48.094;11.838;2022-08-21T03:58:29;95480.56;;;13.01;100.00
70559;BME280;58108;48.094;11.838;2022-08-21T04:00:57;95475.47;;;12.99;100.00
70559;BME280;58108;48.094;11.838;2022-08-21T04:03:23;95476.28;;;12.99;100.00
70559;BME280;58108;48.094;11.838;2022-08-21T04:05:49;95478.09;;;13.09;100.00
70559;BME280;58108;48.094;11.838;2022-08-21T04:08:15;95488.06;;;12.95;100.00
70559;BME280;58108;48.094;11.838;2022-08-21T04:10:46;95488.63;;;12.99;100.00
70559;BME280;58108;48.094;11.838;2022-08-21T04:13:12;95485.97;;;13.09;100.00
70559;BME280;58108;48.094;11.838;2022-08-21T04:15:37;95492.03;;;12.90;100.00
70559;BME280;58108;48.094;11.838;2022-08-21T04:18:04;95483.19;;;12.91;100.00
70559;BME280;58108;48.094;11.838;2022-08-21T04:20:29;95481.81;;;12.96;100.00
70559;BME280;58108;48.094;11.838;2022-08-21T04:22:55;95484.44;;;12.87;100.00
70559;BME280;58108;48.094;11.838;2022-08-21T04:25:22;95488.59;;;12.89;100.00
70559;BME280;58108;48.094;11.838;2022-08-21T04:27:48;95494.66;;;12.90;100.00
70559;BME280;58108;48.094;11.838;2022-08-21T04:30:15;95497.13;;;12.81;100.00
70559;BME280;58108;48.094;11.838;2022-08-21T04:32:48;95500.34;;;12.95;100.00
70559;BME280;58108;48.094;11.838;2022-08-21T04:35:15;95513.94;;;13.00;100.00
70559;BME280;58108;48.094;11.838;2022-08-21T04:37:41;95508.13;;;12.96;100.00
70559;BME280;58108;48.094;11.838;2022-08-21T04:40:08;95511.16;;;13.11;100.00
70559;BME280;58108;48.094;11.838;2022-08-21T04:42:42;95519.91;;;13.12;100.00
70559;BME280;58108;48.094;11.838;2022-08-21T04:45:14;95518.41;;;13.19;100.00
70559;BME280;58108;48.094;11.838;2022-08-21T04:47:40;95515.19;;;13.16;100.00
70559;BME280;58108;48.094;11.838;2022-08-21T04:50:06;95508.28;;;13.24;100.00
70559;BME280;58108;48.094;11.838;2022-08-21T04:52:31;95519.63;;;13.25;100.00
70559;BME280;58108;48.094;11.838;2022-08-21T04:54:57;95515.38;;;13.34;100.00
70559;BME280;58108;48.094;11.838;2022-08-21T04:57:22;95509.41;;;13.22;100.00
70559;BME280;58108;48.094;11.838;2022-08-21T04:59:50;95512.59;;;13.25;100.00
70559;BME280;58108;48.094;11.838;2022-08-21T05:02:16;95521.59;;;13.43;100.00
70559;BME280;58108;48.094;11.838;2022-08-21T05:04:49;95520.47;;;13.25;100.00
70559;BME280;58108;48.094;11.838;2022-08-21T05:07:21;95519.34;;;13.28;100.00
70559;BME280;58108;48.094;11.838;2022-08-21T05:09:49;95520.63;;;13.34;100.00
70559;BME280;58108;48.094;11.838;2022-08-21T05:12:14;95517.69;;;13.27;100.00
70559;BME280;58108;48.094;11.838;2022-08-21T05:14:40;95516.72;;;13.28;100.00
70559;BME280;58108;48.094;11.838;2022-08-21T05:17:07;95516.88;;;13.26;100.00
70559;BME280;58108;48.094;11.838;2022-08-21T05:19:32;95515.25;;;13.45;100.00
70559;BME280;58108;48.094;11.838;2022-08-21T05:21:58;95520.09;;;13.50;100.00
70559;BME280;58108;48.094;11.838;2022-08-21T05:24:23;95521.91;;;13.69;100.00
70559;BME280;58108;48.094;11.838;2022-08-21T05:26:49;95525.38;;;13.79;100.00
70559;BME280;58108;48.094;11.838;2022-08-21T05:29:15;95524.94;;;13.84;100.00
70559;BME280;58108;48.094;11.838;2022-08-21T05:31:41;95520.22;;;13.88;100.00
70559;BME280;58108;48.094;11.838;2022-08-21T05:34:06;95532.28;;;13.90;100.00
70559;BME280;58108;48.094;11.838;2022-08-21T05:36:33;95535.59;;;14.02;100.00
70559;BME280;58108;48.094;11.838;2022-08-21T05:38:58;95540.19;;;14.00;100.00
70559;BME280;58108;48.094;11.838;2022-08-21T05:41:24;95532.41;;;14.08;100.00
70559;BME280;58108;48.094;11.838;2022-08-21T05:43:49;95527.81;;;14.20;100.00
70559;BME280;58108;48.094;11.838;2022-08-21T05:46:14;95534.81;;;14.40;100.00
70559;BME280;58108;48.094;11.838;2022-08-21T05:48:40;95536.53;;;14.21;100.00
70559;BME280;58108;48.094;11.838;2022-08-21T05:51:10;95537.31;;;14.41;100.00
70559;BME280;58108;48.094;11.838;2022-08-21T05:53:37;95541.59;;;14.52;100.00
70559;BME280;58108;48.094;11.838;2022-08-21T05:56:03;95540.53;;;14.73;100.00
70559;BME280;58108;48.094;11.838;2022-08-21T05:58:30;95540.16;;;14.68;100.00
70559;BME280;58108;48.094;11.838;2022-08-21T06:00:56;95540.81;;;14.70;100.00
70559;BME280;58108;48.094;11.838;2022-08-21T06:03:26;95534.38;;;14.92;100.00
70559;BME280;58108;48.094;11.838;2022-08-21T06:05:53;95541.81;;;14.97;100.00
70559;BME280;58108;48.094;11.838;2022-08-21T06:08:19;95538.78;;;15.01;100.00
70559;BME280;58108;48.094;11.838;2022-08-21T06:10:46;95538.16;;;15.08;100.00
70559;BME280;58108;48.094;11.838;2022-08-21T06:13:11;95536.91;;;15.12;100.00
70559;BME280;58108;48.094;11.838;2022-08-21T06:15:37;95540.03;;;15.25;99.75
70559;BME280;58108;48.094;11.838;2022-08-21T06:18:03;95549.06;;;15.23;99.59
70559;BME280;58108;48.094;11.838;2022-08-21T06:20:29;95541.81;;;15.25;98.28
70559;BME280;58108;48.094;11.838;2022-08-21T06:22:54;95540.31;;;15.22;99.36
70559;BME280;58108;48.094;11.838;2022-08-21T06:25:20;95538.72;;;15.29;97.96
70559;BME280;58108;48.094;11.838;2022-08-21T06:27:45;95544.94;;;15.38;96.38
70559;BME280;58108;48.094;11.838;2022-08-21T06:30:12;95540.72;;;15.45;97.69
70559;BME280;58108;48.094;11.838;2022-08-21T06:32:37;95537.88;;;15.57;97.85
70559;BME280;58108;48.094;11.838;2022-08-21T06:35:04;95535.06;;;15.58;96.73
70559;BME280;58108;48.094;11.838;2022-08-21T06:37:30;95538.69;;;15.57;95.70
70559;BME280;58108;48.094;11.838;2022-08-21T06:39:56;95536.50;;;15.71;96.87
70559;BME280;58108;48.094;11.838;2022-08-21T06:42:21;95542.84;;;15.78;96.18
70559;BME280;58108;48.094;11.838;2022-08-21T06:44:47;95535.84;;;15.69;94.00
70559;BME280;58108;48.094;11.838;2022-08-21T06:47:13;95537.56;;;15.78;95.31
70559;BME280;58108;48.094;11.838;2022-08-21T06:49:39;95535.22;;;15.93;94.88
70559;BME280;58108;48.094;11.838;2022-08-21T06:52:09;95536.22;;;15.92;94.08
70559;BME280;58108;48.094;11.838;2022-08-21T06:54:35;95534.09;;;15.96;93.54
70559;BME280;58108;48.094;11.838;2022-08-21T06:57:00;95531.81;;;15.83;92.46
70559;BME280;58108;48.094;11.838;2022-08-21T06:59:25;95535.13;;;15.85;93.37
70559;BME280;58108;48.094;11.838;2022-08-21T07:01:51;95528.59;;;16.07;93.61
70559;BME280;58108;48.094;11.838;2022-08-21T07:04:16;95532.28;;;16.15;94.01
70559;BME280;58108;48.094;11.838;2022-08-21T07:06:41;95532.56;;;16.11;91.07
70559;BME280;58108;48.094;11.838;2022-08-21T07:09:07;95525.91;;;16.25;91.62
70559;BME280;58108;48.094;11.838;2022-08-21T07:11:34;95531.72;;;16.29;91.73
70559;BME280;58108;48.094;11.838;2022-08-21T07:14:00;95526.94;;;16.33;91.92
70559;BME280;58108;48.094;11.838;2022-08-21T07:16:25;95517.03;;;16.35;89.57
70559;BME280;58108;48.094;11.838;2022-08-21T07:18:51;95518.22;;;16.40;89.10
70559;BME280;58108;48.094;11.838;2022-08-21T07:21:16;95524.38;;;16.49;90.01
70559;BME280;58108;48.094;11.838;2022-08-21T07:23:45;95520.53;;;16.70;89.29
70559;BME280;58108;48.094;11.838;2022-08-21T07:26:11;95526.34;;;16.74;87.28
70559;BME280;58108;48.094;11.838;2022-08-21T07:28:36;95516.56;;;16.74;85.58
70559;BME280;58108;48.094;11.838;2022-08-21T07:31:03;95511.94;;;16.76;84.60
70559;BME280;58108;48.094;11.838;2022-08-21T07:33:31;95512.16;;;16.83;84.47
70559;BME280;58108;48.094;11.838;2022-08-21T07:35:57;95517.19;;;17.03;84.08
70559;BME280;58108;48.094;11.838;2022-08-21T07:38:23;95517.38;;;17.01;84.75
70559;BME280;58108;48.094;11.838;2022-08-21T07:40:49;95520.03;;;17.01;82.27
70559;BME280;58108;48.094;11.838;2022-08-21T07:43:16;95512.75;;;17.03;81.38
70559;BME280;58108;48.094;11.838;2022-08-21T07:45:44;95510.78;;;17.14;81.97
70559;BME280;58108;48.094;11.838;2022-08-21T07:48:09;95515.94;;;17.24;81.57
70559;BME280;58108;48.094;11.838;2022-08-21T07:50:35;95512.63;;;17.13;79.20
70559;BME280;58108;48.094;11.838;2022-08-21T07:53:00;95507.72;;;17.27;80.93
70559;BME280;58108;48.094;11.838;2022-08-21T07:55:26;95515.81;;;17.42;81.88
70559;BME280;58108;48.094;11.838;2022-08-21T07:57:51;95514.81;;;17.34;80.36
70559;BME280;58108;48.094;11.838;2022-08-21T08:00:20;95513.66;;;17.37;78.90
70559;BME280;58108;48.094;11.838;2022-08-21T08:02:48;95508.22;;;17.39;79.62
70559;BME280;58108;48.094;11.838;2022-08-21T08:05:19;95507.59;;;17.53;78.84
70559;BME280;58108;48.094;11.838;2022-08-21T08:07:44;95507.59;;;17.70;80.60
70559;BME280;58108;48.094;11.838;2022-08-21T08:10:10;95503.78;;;17.72;76.73
70559;BME280;58108;48.094;11.838;2022-08-21T08:12:40;95495.84;;;17.81;77.88
70559;BME280;58108;48.094;11.838;2022-08-21T08:15:09;95500.13;;;17.98;82.19
70559;BME280;58108;48.094;11.838;2022-08-21T08:17:36;95494.03;;;17.98;77.92
70559;BME280;58108;48.094;11.838;2022-08-21T08:20:05;95497.47;;;17.98;77.12
70559;BME280;58108;48.094;11.838;2022-08-21T08:22:30;95492.69;;;18.18;78.96
70559;BME280;58108;48.094;11.838;2022-08-21T08:24:55;95492.19;;;18.31;78.51
70559;BME280;58108;48.094;11.838;2022-08-21T08:27:22;95488.56;;;18.24;76.26
70559;BME280;58108;48.094;11.838;2022-08-21T08:29:47;95498.13;;;18.34;72.24
70559;BME280;58108;48.094;11.838;2022-08-21T08:32:13;95493.81;;;18.41;74.21
70559;BME280;58108;48.094;11.838;2022-08-21T08:34:39;95494.66;;;18.33;72.25
70559;BME280;58108;48.094;11.838;2022-08-21T08:37:07;95488.88;;;18.38;72.26
70559;BME280;58108;48.094;11.838;2022-08-21T08:39:33;95491.84;;;18.35;70.74
70559;BME280;58108;48.094;11.838;2022-08-21T08:42:12;95482.53;;;18.47;72.07
70559;BME280;58108;48.094;11.838;2022-08-21T08:44:42;95493.75;;;18.66;71.60
70559;BME280;58108;48.094;11.838;2022-08-21T08:47:10;95488.91;;;18.69;72.19
70559;BME280;58108;48.094;11.838;2022-08-21T08:49:47;95502.81;;;18.80;70.45
70559;BME280;58108;48.094;11.838;2022-08-21T08:52:37;95499.69;;;18.76;70.85
70559;BME280;58108;48.094;11.838;2022-08-21T08:55:23;95495.47;;;18.90;71.38
70559;BME280;58108;48.094;11.838;2022-08-21T08:57:52;95493.81;;;18.89;70.02
70559;BME280;58108;48.094;11.838;2022-08-21T09:00:20;95496.59;;;19.12;70.35
70559;BME280;58108;48.094;11.838;2022-08-21T09:02:46;95487.25;;;19.17;68.65
70559;BME280;58108;48.094;11.838;2022-08-21T09:05:28;95492.19;;;19.28;69.79
70559;BME280;58108;48.094;11.838;2022-08-21T09:08:20;95494.78;;;19.60;69.11
70559;BME280;58108;48.094;11.838;2022-08-21T09:11:02;95486.59;;;19.46;68.71
70559;BME280;58108;48.094;11.838;2022-08-21T09:18:48;95487.56;;;19.92;67.86
70559;BME280;58108;48.094;11.838;2022-08-21T09:26:23;95475.97;;;20.08;65.76
70559;BME280;58108;48.094;11.838;2022-08-21T09:28:54;95480.16;;;20.26;66.15
70559;BME280;58108;48.094;11.838;2022-08-21T09:31:25;95485.38;;;20.34;66.47
70559;BME280;58108;48.094;11.838;2022-08-21T09:33:57;95484.47;;;20.42;63.29
70559;BME280;58108;48.094;11.838;2022-08-21T09:36:25;95485.56;;;20.17;64.91
70559;BME280;58108;48.094;11.838;2022-08-21T09:38:56;95481.88;;;20.18;65.61
70559;BME280;58108;48.094;11.838;2022-08-21T09:41:32;95479.50;;;20.24;64.89
70559;BME280;58108;48.094;11.838;2022-08-21T09:43:58;95480.72;;;20.51;62.49
70559;BME280;58108;48.094;11.838;2022-08-21T09:46:26;95474.47;;;20.59;61.92
70559;BME280;58108;48.094;11.838;2022-08-21T09:49:00;95472.66;;;20.89;63.14
70559;BME280;58108;48.094;11.838;2022-08-21T09:51:29;95466.75;;;20.79;60.96
70559;BME280;58108;48.094;11.838;2022-08-21T09:54:09;95475.28;;;21.41;60.76
70559;BME280;58108;48.094;11.838;2022-08-21T09:56:57;95463.63;;;21.64;59.67
70559;BME280;58108;48.094;11.838;2022-08-21T09:59:44;95473.72;;;21.32;60.89
70559;BME280;58108;48.094;11.838;2022-08-21T10:02:31;95466.91;;;21.66;60.52
70559;BME280;58108;48.094;11.838;2022-08-21T10:05:01;95462.34;;;22.04;58.79
70559;BME280;58108;48.094;11.838;2022-08-21T10:07:30;95452.47;;;22.04;58.57
70559;BME280;58108;48.094;11.838;2022-08-21T10:10:00;95456.38;;;21.36;59.42
70559;BME280;58108;48.094;11.838;2022-08-21T10:12:33;95457.56;;;20.82;61.38
70559;BME280;58108;48.094;11.838;2022-08-21T10:15:19;95459.69;;;20.71;62.96
70559;BME280;58108;48.094;11.838;2022-08-21T10:20:40;95456.22;;;20.86;61.00
70559;BME280;58108;48.094;11.838;2022-08-21T10:23:30;95462.84;;;21.27;58.62
70559;BME280;58108;48.094;11.838;2022-08-21T10:30:06;95455.94;;;22.26;58.38
70559;BME280;58108;48.094;11.838;2022-08-21T10:32:07;95451.59;;;22.96;56.80
70559;BME280;58108;48.094;11.838;2022-08-21T10:35:06;95457.84;;;23.17;57.18
70559;BME280;58108;48.094;11.838;2022-08-21T10:43:09;95438.91;;;23.12;56.68
70559;BME280;58108;48.094;11.838;2022-08-21T10:48:36;95440.47;;;22.86;53.67
70559;BME280;58108;48.094;11.838;2022-08-21T10:54:20;95445.84;;;23.95;53.98
70559;BME280;58108;48.094;11.838;2022-08-21T10:56:49;95444.41;;;23.66;48.29
70559;BME280;58108;48.094;11.838;2022-08-21T10:59:32;95440.34;;;22.59;51.32
70559;BME280;58108;48.094;11.838;2022-08-21T11:02:32;95427.47;;;22.69;51.14
70559;BME280;58108;48.094;11.838;2022-08-21T11:05:11;95435.16;;;23.95;53.01
70559;BME280;58108;48.094;11.838;2022-08-21T11:07:51;95423.84;;;23.59;53.54
70559;BME280;58108;48.094;11.838;2022-08-21T11:10:23;95424.53;;;23.13;55.73
70559;BME280;58108;48.094;11.838;2022-08-21T11:12:59;95426.63;;;22.69;55.28
70559;BME280;58108;48.094;11.838;2022-08-21T11:15:33;95429.50;;;22.32;56.70
70559;BME280;58108;48.094;11.838;2022-08-21T11:18:15;95429.34;;;22.11;57.72
70559;BME280;58108;48.094;11.838;2022-08-21T11:21:01;95422.81;;;21.85;57.51
70559;BME280;58108;48.094;11.838;2022-08-21T11:23:41;95432.66;;;22.84;57.20
70559;BME280;58108;48.094;11.838;2022-08-21T11:26:18;95427.03;;;23.28;56.60
70559;BME280;58108;48.094;11.838;2022-08-21T11:29:02;95422.50;;;23.21;55.77
70559;BME280;58108;48.094;11.838;2022-08-21T11:36:38;95417.69;;;23.86;51.71
70559;BME280;58108;48.094;11.838;2022-08-21T11:39:20;95396.44;;;24.25;51.48
70559;BME280;58108;48.094;11.838;2022-08-21T11:44:54;95395.47;;;24.78;52.80
70559;BME280;58108;48.094;11.838;2022-08-21T11:47:49;95396.53;;;25.55;48.39
70559;BME280;58108;48.094;11.838;2022-08-21T11:50:24;95385.41;;;25.77;51.36
70559;BME280;58108;48.094;11.838;2022-08-21T11:53:08;95390.09;;;24.92;47.95
70559;BME280;58108;48.094;11.838;2022-08-21T11:55:44;95385.75;;;24.91;49.02
70559;BME280;58108;48.094;11.838;2022-08-21T11:58:23;95385.56;;;26.07;47.82
70559;BME280;58108;48.094;11.838;2022-08-21T12:00:56;95398.00;;;26.65;46.16
70559;BME280;58108;48.094;11.838;2022-08-21T12:03:30;95388.38;;;27.67;46.22
70559;BME280;58108;48.094;11.838;2022-08-21T12:06:00;95385.78;;;28.92;43.12
70559;BME280;58108;48.094;11.838;2022-08-21T12:08:33;95379.72;;;29.14;39.22
70559;BME280;58108;48.094;11.838;2022-08-21T12:13:32;95377.34;;;28.88;40.03
70559;BME280;58108;48.094;11.838;2022-08-21T12:16:11;95379.25;;;28.64;37.08
70559;BME280;58108;48.094;11.838;2022-08-21T12:18:37;95372.69;;;29.13;40.74
70559;BME280;58108;48.094;11.838;2022-08-21T12:24:02;95378.09;;;27.64;42.08
70559;BME280;58108;48.094;11.838;2022-08-21T12:26:35;95371.59;;;24.83;46.08
70559;BME280;58108;48.094;11.838;2022-08-21T12:29:12;95367.06;;;24.11;48.78
70559;BME280;58108;48.094;11.838;2022-08-21T12:31:59;95372.66;;;23.69;52.29
70559;BME280;58108;48.094;11.838;2022-08-21T12:34:31;95374.81;;;23.12;55.14
70559;BME280;58108;48.094;11.838;2022-08-21T12:37:47;95371.72;;;23.01;56.11
70559;BME280;58108;48.094;11.838;2022-08-21T12:39:48;95371.94;;;23.13;56.06
70559;BME280;58108;48.094;11.838;2022-08-21T12:42:32;95364.13;;;25.24;50.28
70559;BME280;58108;48.094;11.838;2022-08-21T12:45:03;95356.25;;;27.42;45.56
70559;BME280;58108;48.094;11.838;2022-08-21T12:47:46;95358.03;;;25.43;47.28
70559;BME280;58108;48.094;11.838;2022-08-21T12:50:17;95353.00;;;24.36;50.58
70559;BME280;58108;48.094;11.838;2022-08-21T12:52:51;95345.66;;;23.84;50.74
70559;BME280;58108;48.094;11.838;2022-08-21T12:55:27;95350.13;;;22.96;55.90
70559;BME280;58108;48.094;11.838;2022-08-21T12:57:53;95349.53;;;23.07;54.41
70559;BME280;58108;48.094;11.838;2022-08-21T13:00:22;95344.59;;;22.98;55.62
70559;BME280;58108;48.094;11.838;2022-08-21T13:02:49;95345.94;;;22.66;57.92
70559;BME280;58108;48.094;11.838;2022-08-21T13:05:34;95350.16;;;23.10;57.18
70559;BME280;58108;48.094;11.838;2022-08-21T13:08:06;95348.69;;;23.00;56.22
70559;BME280;58108;48.094;11.838;2022-08-21T13:10:34;95342.09;;;24.77;53.39
70559;BME280;58108;48.094;11.838;2022-08-21T13:13:04;95338.56;;;26.24;44.54
70559;BME280;58108;48.094;11.838;2022-08-21T13:15:38;95331.09;;;28.68;43.09
70559;BME280;58108;48.094;11.838;2022-08-21T13:18:05;95334.31;;;28.41;40.12
70559;BME280;58108;48.094;11.838;2022-08-21T13:20:36;95331.38;;;30.10;42.48
70559;BME280;58108;48.094;11.838;2022-08-21T13:23:06;95326.13;;;28.47;37.81
70559;BME280;58108;48.094;11.838;2022-08-21T13:25:35;95323.81;;;29.26;41.32
70559;BME280;58108;48.094;11.838;2022-08-21T13:28:11;95318.09;;;30.92;37.61
70559;BME280;58108;48.094;11.838;2022-08-21T13:30:51;95315.34;;;32.87;33.80
70559;BME280;58108;48.094;11.838;2022-08-21T13:33:20;95319.09;;;34.52;31.17
70559;BME280;58108;48.094;11.838;2022-08-21T13:35:51;95319.53;;;34.85;32.93
70559;BME280;58108;48.094;11.838;2022-08-21T13:38:30;95312.22;;;31.66;31.15
70559;BME280;58108;48.094;11.838;2022-08-21T13:41:06;95305.25;;;30.15;35.41